sensor_id;sensor_type;location;lat;lon;timestamp;temperature;humidity
40638;DHT22;26336;44.696;10.622;2022-10-26T00:01:59;17.10;99.90
40638;DHT22;26336;44.696;10.622;2022-10-26T00:05:03;17.00;99.90
40638;DHT22;26336;44.696;10.622;2022-10-26T00:08:08;16.90;99.90
40638;DHT22;26336;44.696;10.622;2022-10-26T00:11:13;17.00;99.90
40638;DHT22;26336;44.696;10.622;2022-10-26T00:14:17;17.00;99.90
40638;DHT22;26336;44.696;10.622;2022-10-26T00:17:21;17.00;99.90
40638;DHT22;26336;44.696;10.622;2022-10-26T00:20:25;17.00;99.90
40638;DHT22;26336;44.696;10.622;2022-10-26T00:23:29;17.00;99.90
40638;DHT22;26336;44.696;10.622;2022-10-26T00:26:34;17.00;99.90
40638;DHT22;26336;44.696;10.622;2022-10-26T00:29:38;16.90;99.90
40638;DHT22;26336;44.696;10.622;2022-10-26T00:32:42;17.00;99.90
40638;DHT22;26336;44.696;10.622;2022-10-26T00:35:47;16.90;99.90
40638;DHT22;26336;44.696;10.622;2022-10-26T00:38:54;16.90;99.90
40638;DHT22;26336;44.696;10.622;2022-10-26T00:41:57;16.90;99.90
40638;DHT22;26336;44.696;10.622;2022-10-26T00:45:25;16.90;99.90
40638;DHT22;26336;44.696;10.622;2022-10-26T00:48:40;16.90;99.90
40638;DHT22;26336;44.696;10.622;2022-10-26T00:51:51;16.90;99.90
40638;DHT22;26336;44.696;10.622;2022-10-26T00:54:56;16.90;99.90
40638;DHT22;26336;44.696;10.622;2022-10-26T00:58:01;16.90;99.90
40638;DHT22;26336;44.696;10.622;2022-10-26T01:01:08;16.90;99.90
40638;DHT22;26336;44.696;10.622;2022-10-26T01:04:12;16.90;99.90
40638;DHT22;26336;44.696;10.622;2022-10-26T01:07:17;16.90;99.90
40638;DHT22;26336;44.696;10.622;2022-10-26T01:10:21;16.80;99.90
40638;DHT22;26336;44.696;10.622;2022-10-26T01:13:27;16.70;99.90
40638;DHT22;26336;44.696;10.622;2022-10-26T01:20:32;16.80;99.90
40638;DHT22;26336;44.696;10.622;2022-10-26T01:23:33;16.60;99.90
40638;DHT22;26336;44.696;10.622;2022-10-26T01:33:40;16.70;99.90
40638;DHT22;26336;44.696;10.622;2022-10-26T01:36:58;16.70;99.90
40638;DHT22;26336;44.696;10.622;2022-10-26T01:40:19;16.80;99.90
40638;DHT22;26336;44.696;10.622;2022-10-26T01:43:25;16.80;99.90
40638;DHT22;26336;44.696;10.622;2022-10-26T01:46:38;16.80;99.90
40638;DHT22;26336;44.696;10.622;2022-10-26T01:49:49;16.80;99.90
40638;DHT22;26336;44.696;10.622;2022-10-26T01:52:55;16.80;99.90
40638;DHT22;26336;44.696;10.622;2022-10-26T01:56:00;16.80;99.90
40638;DHT22;26336;44.696;10.622;2022-10-26T02:03:00;16.70;99.90
40638;DHT22;26336;44.696;10.622;2022-10-26T02:06:21;16.60;99.90
40638;DHT22;26336;44.696;10.622;2022-10-26T02:13:17;16.60;99.90
40638;DHT22;26336;44.696;10.622;2022-10-26T02:19:44;16.70;99.90
40638;DHT22;26336;44.696;10.622;2022-10-26T02:22:50;16.60;99.90
40638;DHT22;26336;44.696;10.622;2022-10-26T02:25:57;16.70;99.90
40638;DHT22;26336;44.696;10.622;2022-10-26T02:29:05;16.70;99.90
40638;DHT22;26336;44.696;10.622;2022-10-26T02:32:11;16.70;99.90
40638;DHT22;26336;44.696;10.622;2022-10-26T02:35:16;16.70;99.90
40638;DHT22;26336;44.696;10.622;2022-10-26T02:38:23;16.70;99.90
40638;DHT22;26336;44.696;10.622;2022-10-26T02:41:29;16.70;99.90
40638;DHT22;26336;44.696;10.622;2022-10-26T02:44:52;16.70;99.90
40638;DHT22;26336;44.696;10.622;2022-10-26T02:47:57;16.70;99.90
40638;DHT22;26336;44.696;10.622;2022-10-26T02:54:25;16.60;99.90
40638;DHT22;26336;44.696;10.622;2022-10-26T02:57:36;16.60;99.90
40638;DHT22;26336;44.696;10.622;2022-10-26T03:00:43;16.60;99.90
40638;DHT22;26336;44.696;10.622;2022-10-26T03:03:48;16.60;99.90
40638;DHT22;26336;44.696;10.622;2022-10-26T03:06:53;16.60;99.90
40638;DHT22;26336;44.696;10.622;2022-10-26T03:09:58;16.60;99.90
40638;DHT22;26336;44.696;10.622;2022-10-26T03:13:04;16.50;99.90
40638;DHT22;26336;44.696;10.622;2022-10-26T03:16:08;16.50;99.90
40638;DHT22;26336;44.696;10.622;2022-10-26T03:19:12;16.50;99.90
40638;DHT22;26336;44.696;10.622;2022-10-26T03:22:16;16.40;99.90
40638;DHT22;26336;44.696;10.622;2022-10-26T03:25:21;16.40;99.90
40638;DHT22;26336;44.696;10.622;2022-10-26T03:28:25;16.40;99.90
40638;DHT22;26336;44.696;10.622;2022-10-26T03:31:29;16.30;99.90
40638;DHT22;26336;44.696;10.622;2022-10-26T03:34:35;16.30;99.90
40638;DHT22;26336;44.696;10.622;2022-10-26T03:37:39;16.30;99.90
40638;DHT22;26336;44.696;10.622;2022-10-26T03:40:43;16.30;99.90
40638;DHT22;26336;44.696;10.622;2022-10-26T03:43:47;16.30;99.90
40638;DHT22;26336;44.696;10.622;2022-10-26T03:46:51;16.30;99.90
40638;DHT22;26336;44.696;10.622;2022-10-26T03:49:55;16.30;99.90
40638;DHT22;26336;44.696;10.622;2022-10-26T03:52:59;16.30;99.90
40638;DHT22;26336;44.696;10.622;2022-10-26T03:56:04;16.20;99.90
40638;DHT22;26336;44.696;10.622;2022-10-26T03:59:08;16.10;99.90
40638;DHT22;26336;44.696;10.622;2022-10-26T04:02:12;16.10;99.90
40638;DHT22;26336;44.696;10.622;2022-10-26T04:05:17;16.10;99.90
40638;DHT22;26336;44.696;10.622;2022-10-26T04:08:22;16.10;99.90
40638;DHT22;26336;44.696;10.622;2022-10-26T04:11:26;16.10;99.90
40638;DHT22;26336;44.696;10.622;2022-10-26T04:14:30;16.10;99.90
40638;DHT22;26336;44.696;10.622;2022-10-26T04:17:35;16.10;99.90
40638;DHT22;26336;44.696;10.622;2022-10-26T04:20:39;16.10;99.90
40638;DHT22;26336;44.696;10.622;2022-10-26T04:23:44;16.00;99.90
40638;DHT22;26336;44.696;10.622;2022-10-26T04:26:48;16.00;99.90
40638;DHT22;26336;44.696;10.622;2022-10-26T04:29:52;16.00;99.90
40638;DHT22;26336;44.696;10.622;2022-10-26T04:32:56;16.00;99.90
40638;DHT22;26336;44.696;10.622;2022-10-26T04:36:00;15.90;99.90
40638;DHT22;26336;44.696;10.622;2022-10-26T04:39:04;15.70;99.90
40638;DHT22;26336;44.696;10.622;2022-10-26T04:42:08;15.70;99.90
40638;DHT22;26336;44.696;10.622;2022-10-26T04:45:14;15.70;99.90
40638;DHT22;26336;44.696;10.622;2022-10-26T04:48:22;15.80;99.90
40638;DHT22;26336;44.696;10.622;2022-10-26T04:51:26;15.90;99.90
40638;DHT22;26336;44.696;10.622;2022-10-26T04:54:30;15.90;99.90
40638;DHT22;26336;44.696;10.622;2022-10-26T04:57:34;15.90;99.90
40638;DHT22;26336;44.696;10.622;2022-10-26T05:00:39;15.80;99.90
40638;DHT22;26336;44.696;10.622;2022-10-26T05:03:43;15.90;99.90
40638;DHT22;26336;44.696;10.622;2022-10-26T05:06:47;15.90;99.90
40638;DHT22;26336;44.696;10.622;2022-10-26T05:09:51;15.90;99.90
40638;DHT22;26336;44.696;10.622;2022-10-26T05:12:56;15.90;99.90
40638;DHT22;26336;44.696;10.622;2022-10-26T05:16:01;16.00;99.90
40638;DHT22;26336;44.696;10.622;2022-10-26T05:19:05;16.00;99.90
40638;DHT22;26336;44.696;10.622;2022-10-26T05:22:09;16.00;99.90
40638;DHT22;26336;44.696;10.622;2022-10-26T05:25:16;16.00;99.90
40638;DHT22;26336;44.696;10.622;2022-10-26T05:28:31;16.00;99.90
40638;DHT22;26336;44.696;10.622;2022-10-26T05:31:36;15.90;99.90
40638;DHT22;26336;44.696;10.622;2022-10-26T05:34:40;15.90;99.90
40638;DHT22;26336;44.696;10.622;2022-10-26T05:37:43;16.00;99.90
40638;DHT22;26336;44.696;10.622;2022-10-26T05:40:48;15.90;99.90
40638;DHT22;26336;44.696;10.622;2022-10-26T05:43:53;15.90;99.90
40638;DHT22;26336;44.696;10.622;2022-10-26T05:47:00;15.90;99.90
40638;DHT22;26336;44.696;10.622;2022-10-26T05:50:04;15.90;99.90
40638;DHT22;26336;44.696;10.622;2022-10-26T05:53:08;15.90;99.90
40638;DHT22;26336;44.696;10.622;2022-10-26T05:56:19;15.90;99.90
40638;DHT22;26336;44.696;10.622;2022-10-26T05:59:24;15.90;99.90
40638;DHT22;26336;44.696;10.622;2022-10-26T06:05:55;15.90;99.90
40638;DHT22;26336;44.696;10.622;2022-10-26T06:09:03;15.90;99.90
40638;DHT22;26336;44.696;10.622;2022-10-26T06:12:08;15.90;99.90
40638;DHT22;26336;44.696;10.622;2022-10-26T06:15:17;15.90;99.90
40638;DHT22;26336;44.696;10.622;2022-10-26T06:25:36;15.70;99.90
40638;DHT22;26336;44.696;10.622;2022-10-26T06:28:57;15.70;99.90
40638;DHT22;26336;44.696;10.622;2022-10-26T06:32:02;15.70;99.90
40638;DHT22;26336;44.696;10.622;2022-10-26T06:35:36;15.70;99.90
40638;DHT22;26336;44.696;10.622;2022-10-26T06:42:00;15.90;99.90
40638;DHT22;26336;44.696;10.622;2022-10-26T06:45:05;15.90;99.90
40638;DHT22;26336;44.696;10.622;2022-10-26T06:48:15;15.90;99.90
40638;DHT22;26336;44.696;10.622;2022-10-26T06:51:22;15.90;99.90
40638;DHT22;26336;44.696;10.622;2022-10-26T06:54:47;15.90;99.90
40638;DHT22;26336;44.696;10.622;2022-10-26T06:57:52;16.00;99.90
40638;DHT22;26336;44.696;10.622;2022-10-26T07:00:57;16.00;99.90
40638;DHT22;26336;44.696;10.622;2022-10-26T07:04:01;16.00;99.90
40638;DHT22;26336;44.696;10.622;2022-10-26T07:07:28;16.00;99.90
40638;DHT22;26336;44.696;10.622;2022-10-26T07:10:33;16.10;99.90
40638;DHT22;26336;44.696;10.622;2022-10-26T07:13:41;16.10;99.90
40638;DHT22;26336;44.696;10.622;2022-10-26T07:16:45;16.20;99.90
40638;DHT22;26336;44.696;10.622;2022-10-26T07:19:49;16.20;99.90
40638;DHT22;26336;44.696;10.622;2022-10-26T07:22:54;16.20;99.90
40638;DHT22;26336;44.696;10.622;2022-10-26T07:25:59;16.30;99.90
40638;DHT22;26336;44.696;10.622;2022-10-26T07:29:03;16.30;99.90
40638;DHT22;26336;44.696;10.622;2022-10-26T07:32:07;16.30;99.90
40638;DHT22;26336;44.696;10.622;2022-10-26T07:35:11;16.40;99.90
40638;DHT22;26336;44.696;10.622;2022-10-26T07:38:15;16.50;99.90
40638;DHT22;26336;44.696;10.622;2022-10-26T07:41:19;16.50;99.90
40638;DHT22;26336;44.696;10.622;2022-10-26T07:44:23;16.50;99.90
40638;DHT22;26336;44.696;10.622;2022-10-26T07:47:27;16.60;99.90
40638;DHT22;26336;44.696;10.622;2022-10-26T07:50:32;16.70;99.90
40638;DHT22;26336;44.696;10.622;2022-10-26T07:53:36;16.80;99.90
40638;DHT22;26336;44.696;10.622;2022-10-26T07:56:40;16.80;99.90
40638;DHT22;26336;44.696;10.622;2022-10-26T07:59:44;16.90;99.90
40638;DHT22;26336;44.696;10.622;2022-10-26T08:02:48;17.00;99.90
40638;DHT22;26336;44.696;10.622;2022-10-26T08:05:52;17.10;99.90
40638;DHT22;26336;44.696;10.622;2022-10-26T08:08:58;17.20;99.90
40638;DHT22;26336;44.696;10.622;2022-10-26T08:12:03;17.30;99.90
40638;DHT22;26336;44.696;10.622;2022-10-26T08:15:08;17.40;99.90
40638;DHT22;26336;44.696;10.622;2022-10-26T08:18:12;17.50;99.90
40638;DHT22;26336;44.696;10.622;2022-10-26T08:21:17;17.60;99.90
40638;DHT22;26336;44.696;10.622;2022-10-26T08:24:21;17.70;99.90
40638;DHT22;26336;44.696;10.622;2022-10-26T08:27:25;17.70;99.90
40638;DHT22;26336;44.696;10.622;2022-10-26T08:30:30;17.80;99.90
40638;DHT22;26336;44.696;10.622;2022-10-26T08:33:34;17.90;99.90
40638;DHT22;26336;44.696;10.622;2022-10-26T08:36:38;18.00;99.90
40638;DHT22;26336;44.696;10.622;2022-10-26T08:39:42;18.10;99.90
40638;DHT22;26336;44.696;10.622;2022-10-26T08:42:49;18.10;99.90
40638;DHT22;26336;44.696;10.622;2022-10-26T08:46:03;18.20;99.90
40638;DHT22;26336;44.696;10.622;2022-10-26T08:49:17;18.30;99.90
40638;DHT22;26336;44.696;10.622;2022-10-26T08:52:33;18.40;99.90
40638;DHT22;26336;44.696;10.622;2022-10-26T08:55:42;18.40;99.90
40638;DHT22;26336;44.696;10.622;2022-10-26T08:58:56;18.50;99.90
40638;DHT22;26336;44.696;10.622;2022-10-26T09:02:03;18.50;99.90
40638;DHT22;26336;44.696;10.622;2022-10-26T09:05:16;18.60;99.90
40638;DHT22;26336;44.696;10.622;2022-10-26T09:18:27;18.60;99.90
40638;DHT22;26336;44.696;10.622;2022-10-26T09:21:42;18.70;99.90
40638;DHT22;26336;44.696;10.622;2022-10-26T09:24:54;18.70;99.90
40638;DHT22;26336;44.696;10.622;2022-10-26T09:28:00;18.80;99.90
40638;DHT22;26336;44.696;10.622;2022-10-26T09:31:04;18.80;99.90
40638;DHT22;26336;44.696;10.622;2022-10-26T09:34:23;18.80;99.90
40638;DHT22;26336;44.696;10.622;2022-10-26T09:37:36;18.90;99.90
40638;DHT22;26336;44.696;10.622;2022-10-26T09:47:36;19.00;99.90
40638;DHT22;26336;44.696;10.622;2022-10-26T09:50:43;19.00;99.90
40638;DHT22;26336;44.696;10.622;2022-10-26T09:53:49;19.00;99.90
40638;DHT22;26336;44.696;10.622;2022-10-26T09:56:55;19.10;99.90
40638;DHT22;26336;44.696;10.622;2022-10-26T10:00:01;19.10;99.90
40638;DHT22;26336;44.696;10.622;2022-10-26T10:03:19;19.10;99.90
40638;DHT22;26336;44.696;10.622;2022-10-26T10:06:24;19.20;99.90
40638;DHT22;26336;44.696;10.622;2022-10-26T10:09:29;19.30;99.90
40638;DHT22;26336;44.696;10.622;2022-10-26T10:12:33;19.30;99.90
40638;DHT22;26336;44.696;10.622;2022-10-26T10:15:37;19.30;99.90
40638;DHT22;26336;44.696;10.622;2022-10-26T10:18:41;19.30;99.90
40638;DHT22;26336;44.696;10.622;2022-10-26T10:21:49;19.40;99.90
40638;DHT22;26336;44.696;10.622;2022-10-26T10:24:59;19.40;99.90
40638;DHT22;26336;44.696;10.622;2022-10-26T10:28:24;19.50;99.90
40638;DHT22;26336;44.696;10.622;2022-10-26T10:31:32;19.50;99.90
40638;DHT22;26336;44.696;10.622;2022-10-26T10:34:37;19.50;99.90
40638;DHT22;26336;44.696;10.622;2022-10-26T10:37:42;19.60;99.90
40638;DHT22;26336;44.696;10.622;2022-10-26T10:40:51;19.70;99.90
40638;DHT22;26336;44.696;10.622;2022-10-26T10:44:26;19.70;99.90
40638;DHT22;26336;44.696;10.622;2022-10-26T10:47:34;19.70;99.90
40638;DHT22;26336;44.696;10.622;2022-10-26T10:51:02;19.80;99.90
40638;DHT22;26336;44.696;10.622;2022-10-26T10:54:34;19.70;99.90
40638;DHT22;26336;44.696;10.622;2022-10-26T11:01:39;19.80;99.90
40638;DHT22;26336;44.696;10.622;2022-10-26T11:11:49;19.90;99.90
40638;DHT22;26336;44.696;10.622;2022-10-26T11:15:13;19.90;99.90
40638;DHT22;26336;44.696;10.622;2022-10-26T11:22:07;20.00;99.90
40638;DHT22;26336;44.696;10.622;2022-10-26T11:29:00;20.10;99.90
40638;DHT22;26336;44.696;10.622;2022-10-26T11:32:24;20.10;99.90
40638;DHT22;26336;44.696;10.622;2022-10-26T11:35:32;20.20;99.90
40638;DHT22;26336;44.696;10.622;2022-10-26T11:42:26;20.20;99.90
40638;DHT22;26336;44.696;10.622;2022-10-26T11:45:41;20.30;99.90
40638;DHT22;26336;44.696;10.622;2022-10-26T11:52:48;20.30;99.90
40638;DHT22;26336;44.696;10.622;2022-10-26T11:55:54;20.40;99.90
40638;DHT22;26336;44.696;10.622;2022-10-26T11:58:59;20.40;99.90
40638;DHT22;26336;44.696;10.622;2022-10-26T12:05:21;20.50;99.90
40638;DHT22;26336;44.696;10.622;2022-10-26T12:08:41;20.60;99.90
40638;DHT22;26336;44.696;10.622;2022-10-26T12:15:22;20.60;99.90
40638;DHT22;26336;44.696;10.622;2022-10-26T12:18:41;20.60;99.90
40638;DHT22;26336;44.696;10.622;2022-10-26T12:21:49;20.50;99.90
40638;DHT22;26336;44.696;10.622;2022-10-26T12:28:41;20.50;99.90
40638;DHT22;26336;44.696;10.622;2022-10-26T12:31:45;20.60;99.90
40638;DHT22;26336;44.696;10.622;2022-10-26T12:37:53;20.60;99.90
40638;DHT22;26336;44.696;10.622;2022-10-26T12:54:40;20.90;99.90
40638;DHT22;26336;44.696;10.622;2022-10-26T13:01:34;20.90;99.90
40638;DHT22;26336;44.696;10.622;2022-10-26T13:08:04;21.00;99.90
40638;DHT22;26336;44.696;10.622;2022-10-26T13:17:28;21.10;99.90
40638;DHT22;26336;44.696;10.622;2022-10-26T13:20:35;21.10;99.90
40638;DHT22;26336;44.696;10.622;2022-10-26T13:23:42;21.10;99.90
40638;DHT22;26336;44.696;10.622;2022-10-26T13:30:44;21.20;99.90
40638;DHT22;26336;44.696;10.622;2022-10-26T13:33:57;21.10;99.90
40638;DHT22;26336;44.696;10.622;2022-10-26T13:37:04;21.10;99.90
40638;DHT22;26336;44.696;10.622;2022-10-26T13:40:16;21.10;99.90
40638;DHT22;26336;44.696;10.622;2022-10-26T13:43:24;21.10;99.90
40638;DHT22;26336;44.696;10.622;2022-10-26T13:46:29;21.10;99.90
40638;DHT22;26336;44.696;10.622;2022-10-26T13:49:42;21.10;99.90
40638;DHT22;26336;44.696;10.622;2022-10-26T13:52:50;21.10;99.90
40638;DHT22;26336;44.696;10.622;2022-10-26T13:56:15;21.10;99.90
40638;DHT22;26336;44.696;10.622;2022-10-26T13:59:21;21.10;99.90
40638;DHT22;26336;44.696;10.622;2022-10-26T14:02:27;21.00;99.90
40638;DHT22;26336;44.696;10.622;2022-10-26T14:05:41;21.00;99.90
40638;DHT22;26336;44.696;10.622;2022-10-26T14:08:48;21.00;99.90
40638;DHT22;26336;44.696;10.622;2022-10-26T14:11:56;21.00;99.90
40638;DHT22;26336;44.696;10.622;2022-10-26T14:15:11;21.00;99.90
40638;DHT22;26336;44.696;10.622;2022-10-26T14:18:22;21.10;99.90
40638;DHT22;26336;44.696;10.622;2022-10-26T14:21:28;21.10;99.90
40638;DHT22;26336;44.696;10.622;2022-10-26T14:24:34;21.20;99.90
40638;DHT22;26336;44.696;10.622;2022-10-26T14:27:43;21.20;99.90
40638;DHT22;26336;44.696;10.622;2022-10-26T14:30:47;21.10;99.90
40638;DHT22;26336;44.696;10.622;2022-10-26T14:33:52;21.10;99.90
40638;DHT22;26336;44.696;10.622;2022-10-26T14:37:01;21.20;99.90
40638;DHT22;26336;44.696;10.622;2022-10-26T14:40:23;21.10;99.90
40638;DHT22;26336;44.696;10.622;2022-10-26T14:43:28;21.10;99.90
40638;DHT22;26336;44.696;10.622;2022-10-26T14:46:34;21.10;99.90
40638;DHT22;26336;44.696;10.622;2022-10-26T14:49:44;21.10;99.90
40638;DHT22;26336;44.696;10.622;2022-10-26T14:52:53;21.10;99.90
40638;DHT22;26336;44.696;10.622;2022-10-26T14:55:59;21.10;99.90
40638;DHT22;26336;44.696;10.622;2022-10-26T14:59:31;21.10;99.90
40638;DHT22;26336;44.696;10.622;2022-10-26T15:02:35;21.00;99.90
40638;DHT22;26336;44.696;10.622;2022-10-26T15:05:39;21.00;99.90
40638;DHT22;26336;44.696;10.622;2022-10-26T15:08:44;21.00;99.90
40638;DHT22;26336;44.696;10.622;2022-10-26T15:11:49;20.90;99.90
40638;DHT22;26336;44.696;10.622;2022-10-26T15:14:54;20.90;99.90
40638;DHT22;26336;44.696;10.622;2022-10-26T15:17:59;20.90;99.90
40638;DHT22;26336;44.696;10.622;2022-10-26T15:24:32;20.90;99.90
40638;DHT22;26336;44.696;10.622;2022-10-26T15:27:38;20.80;99.90
40638;DHT22;26336;44.696;10.622;2022-10-26T15:31:23;20.70;99.90
40638;DHT22;26336;44.696;10.622;2022-10-26T15:34:22;20.70;99.90
40638;DHT22;26336;44.696;10.622;2022-10-26T15:37:26;20.60;99.90
40638;DHT22;26336;44.696;10.622;2022-10-26T15:40:30;20.60;99.90
40638;DHT22;26336;44.696;10.622;2022-10-26T15:43:37;20.60;99.90
40638;DHT22;26336;44.696;10.622;2022-10-26T15:46:42;20.60;99.90
40638;DHT22;26336;44.696;10.622;2022-10-26T15:49:46;20.60;99.90
40638;DHT22;26336;44.696;10.622;2022-10-26T15:52:58;20.60;99.90
40638;DHT22;26336;44.696;10.622;2022-10-26T15:56:11;20.50;99.90
40638;DHT22;26336;44.696;10.622;2022-10-26T15:59:17;20.50;99.90
40638;DHT22;26336;44.696;10.622;2022-10-26T16:02:21;20.50;99.90
40638;DHT22;26336;44.696;10.622;2022-10-26T16:05:25;20.50;99.90
40638;DHT22;26336;44.696;10.622;2022-10-26T16:08:30;20.40;99.90
40638;DHT22;26336;44.696;10.622;2022-10-26T16:11:34;20.40;99.90
40638;DHT22;26336;44.696;10.622;2022-10-26T16:14:38;20.40;99.90
40638;DHT22;26336;44.696;10.622;2022-10-26T16:17:43;20.30;99.90
40638;DHT22;26336;44.696;10.622;2022-10-26T16:20:48;20.30;99.90
40638;DHT22;26336;44.696;10.622;2022-10-26T16:24:03;20.30;99.90
40638;DHT22;26336;44.696;10.622;2022-10-26T16:27:07;20.20;99.90
40638;DHT22;26336;44.696;10.622;2022-10-26T16:30:13;20.20;99.90
40638;DHT22;26336;44.696;10.622;2022-10-26T16:33:17;20.20;99.90
40638;DHT22;26336;44.696;10.622;2022-10-26T16:36:21;20.10;99.90
40638;DHT22;26336;44.696;10.622;2022-10-26T16:39:27;20.10;99.90
40638;DHT22;26336;44.696;10.622;2022-10-26T16:42:32;20.10;99.90
40638;DHT22;26336;44.696;10.622;2022-10-26T16:45:38;20.10;99.90
40638;DHT22;26336;44.696;10.622;2022-10-26T16:48:44;20.10;99.90
40638;DHT22;26336;44.696;10.622;2022-10-26T16:51:48;20.00;99.90
40638;DHT22;26336;44.696;10.622;2022-10-26T16:54:55;20.00;99.90
40638;DHT22;26336;44.696;10.622;2022-10-26T16:57:59;20.00;99.90
40638;DHT22;26336;44.696;10.622;2022-10-26T17:01:04;20.00;99.90
40638;DHT22;26336;44.696;10.622;2022-10-26T17:04:11;20.00;99.90
40638;DHT22;26336;44.696;10.622;2022-10-26T17:07:15;20.00;99.90
40638;DHT22;26336;44.696;10.622;2022-10-26T17:10:19;19.90;99.90
40638;DHT22;26336;44.696;10.622;2022-10-26T17:13:23;19.90;99.90
40638;DHT22;26336;44.696;10.622;2022-10-26T17:16:30;19.80;99.90
40638;DHT22;26336;44.696;10.622;2022-10-26T17:19:34;19.80;99.90
40638;DHT22;26336;44.696;10.622;2022-10-26T17:22:41;19.70;99.90
40638;DHT22;26336;44.696;10.622;2022-10-26T17:25:49;19.60;99.90
40638;DHT22;26336;44.696;10.622;2022-10-26T17:28:55;19.60;99.90
40638;DHT22;26336;44.696;10.622;2022-10-26T17:31:59;19.60;99.90
40638;DHT22;26336;44.696;10.622;2022-10-26T17:35:03;19.60;99.90
40638;DHT22;26336;44.696;10.622;2022-10-26T17:38:07;19.70;99.90
40638;DHT22;26336;44.696;10.622;2022-10-26T17:41:13;19.60;99.90
40638;DHT22;26336;44.696;10.622;2022-10-26T17:44:17;19.70;99.90
40638;DHT22;26336;44.696;10.622;2022-10-26T17:47:21;19.70;99.90
40638;DHT22;26336;44.696;10.622;2022-10-26T17:50:26;19.60;99.90
40638;DHT22;26336;44.696;10.622;2022-10-26T17:53:32;19.60;99.90
40638;DHT22;26336;44.696;10.622;2022-10-26T17:56:36;19.60;99.90
40638;DHT22;26336;44.696;10.622;2022-10-26T17:59:42;19.60;99.90
40638;DHT22;26336;44.696;10.622;2022-10-26T18:02:49;19.60;99.90
40638;DHT22;26336;44.696;10.622;2022-10-26T18:05:53;19.60;99.90
40638;DHT22;26336;44.696;10.622;2022-10-26T18:08:57;19.60;99.90
40638;DHT22;26336;44.696;10.622;2022-10-26T18:12:01;19.50;99.90
40638;DHT22;26336;44.696;10.622;2022-10-26T18:15:06;19.50;99.90
40638;DHT22;26336;44.696;10.622;2022-10-26T18:18:10;19.40;99.90
40638;DHT22;26336;44.696;10.622;2022-10-26T18:21:16;19.30;99.90
40638;DHT22;26336;44.696;10.622;2022-10-26T18:24:20;19.30;99.90
40638;DHT22;26336;44.696;10.622;2022-10-26T18:27:24;19.30;99.90
40638;DHT22;26336;44.696;10.622;2022-10-26T18:30:28;19.30;99.90
40638;DHT22;26336;44.696;10.622;2022-10-26T18:33:35;19.20;99.90
40638;DHT22;26336;44.696;10.622;2022-10-26T18:36:39;19.30;99.90
40638;DHT22;26336;44.696;10.622;2022-10-26T18:39:43;19.30;99.90
40638;DHT22;26336;44.696;10.622;2022-10-26T18:42:47;19.20;99.90
40638;DHT22;26336;44.696;10.622;2022-10-26T18:45:51;19.10;99.90
40638;DHT22;26336;44.696;10.622;2022-10-26T18:49:00;19.10;99.90
40638;DHT22;26336;44.696;10.622;2022-10-26T18:52:04;19.10;99.90
40638;DHT22;26336;44.696;10.622;2022-10-26T18:55:08;19.10;99.90
40638;DHT22;26336;44.696;10.622;2022-10-26T18:58:13;19.10;99.90
40638;DHT22;26336;44.696;10.622;2022-10-26T19:01:22;19.10;99.90
40638;DHT22;26336;44.696;10.622;2022-10-26T19:04:27;19.00;99.90
40638;DHT22;26336;44.696;10.622;2022-10-26T19:07:31;19.00;99.90
40638;DHT22;26336;44.696;10.622;2022-10-26T19:10:35;19.00;99.90
40638;DHT22;26336;44.696;10.622;2022-10-26T19:13:39;19.00;99.90
40638;DHT22;26336;44.696;10.622;2022-10-26T19:16:43;19.00;99.90
40638;DHT22;26336;44.696;10.622;2022-10-26T19:19:47;19.00;99.90
40638;DHT22;26336;44.696;10.622;2022-10-26T19:22:52;19.00;99.90
40638;DHT22;26336;44.696;10.622;2022-10-26T19:25:56;19.00;99.90
40638;DHT22;26336;44.696;10.622;2022-10-26T19:29:02;19.00;99.90
40638;DHT22;26336;44.696;10.622;2022-10-26T19:32:08;19.00;99.90
40638;DHT22;26336;44.696;10.622;2022-10-26T19:35:12;18.90;99.90
40638;DHT22;26336;44.696;10.622;2022-10-26T19:38:17;18.90;99.90
40638;DHT22;26336;44.696;10.622;2022-10-26T19:41:21;18.90;99.90
40638;DHT22;26336;44.696;10.622;2022-10-26T19:44:26;18.80;99.90
40638;DHT22;26336;44.696;10.622;2022-10-26T19:47:32;18.80;99.90
40638;DHT22;26336;44.696;10.622;2022-10-26T19:50:36;18.80;99.90
40638;DHT22;26336;44.696;10.622;2022-10-26T19:53:41;18.70;99.90
40638;DHT22;26336;44.696;10.622;2022-10-26T19:56:45;18.70;99.90
40638;DHT22;26336;44.696;10.622;2022-10-26T19:59:49;18.60;99.90
40638;DHT22;26336;44.696;10.622;2022-10-26T20:02:53;18.70;99.90
40638;DHT22;26336;44.696;10.622;2022-10-26T20:05:59;18.70;99.90
40638;DHT22;26336;44.696;10.622;2022-10-26T20:09:11;18.70;99.90
40638;DHT22;26336;44.696;10.622;2022-10-26T20:12:14;18.70;99.90
40638;DHT22;26336;44.696;10.622;2022-10-26T20:15:18;18.70;99.90
40638;DHT22;26336;44.696;10.622;2022-10-26T20:18:22;18.70;99.90
40638;DHT22;26336;44.696;10.622;2022-10-26T20:21:26;18.60;99.90
40638;DHT22;26336;44.696;10.622;2022-10-26T20:24:31;18.60;99.90
40638;DHT22;26336;44.696;10.622;2022-10-26T20:27:34;18.60;99.90
40638;DHT22;26336;44.696;10.622;2022-10-26T20:30:46;18.50;99.90
40638;DHT22;26336;44.696;10.622;2022-10-26T20:33:51;18.40;99.90
40638;DHT22;26336;44.696;10.622;2022-10-26T20:36:55;18.50;99.90
40638;DHT22;26336;44.696;10.622;2022-10-26T20:39:59;18.50;99.90
40638;DHT22;26336;44.696;10.622;2022-10-26T20:43:03;18.50;99.90
40638;DHT22;26336;44.696;10.622;2022-10-26T20:46:10;18.40;99.90
40638;DHT22;26336;44.696;10.622;2022-10-26T20:49:14;18.30;99.90
40638;DHT22;26336;44.696;10.622;2022-10-26T20:52:21;18.30;99.90
40638;DHT22;26336;44.696;10.622;2022-10-26T20:55:48;18.20;99.90
40638;DHT22;26336;44.696;10.622;2022-10-26T20:58:55;18.30;99.90
40638;DHT22;26336;44.696;10.622;2022-10-26T21:02:00;18.30;99.90
40638;DHT22;26336;44.696;10.622;2022-10-26T21:05:04;18.30;99.90
40638;DHT22;26336;44.696;10.622;2022-10-26T21:08:08;18.20;99.90
40638;DHT22;26336;44.696;10.622;2022-10-26T21:11:12;18.20;99.90
40638;DHT22;26336;44.696;10.622;2022-10-26T21:14:16;18.30;99.90
40638;DHT22;26336;44.696;10.622;2022-10-26T21:17:20;18.30;99.90
40638;DHT22;26336;44.696;10.622;2022-10-26T21:20:24;18.30;99.90
40638;DHT22;26336;44.696;10.622;2022-10-26T21:23:34;18.30;99.90
40638;DHT22;26336;44.696;10.622;2022-10-26T21:26:41;18.30;99.90
40638;DHT22;26336;44.696;10.622;2022-10-26T21:29:48;18.30;99.90
40638;DHT22;26336;44.696;10.622;2022-10-26T21:32:52;18.30;99.90